createdAt,value
2022-11-10T00:02:36.772Z,74.83
2022-11-10T00:05:39.897Z,74.64
2022-11-10T00:08:42.755Z,75.17
2022-11-10T00:11:51.637Z,74.84
2022-11-10T00:15:16.344Z,74.95
2022-11-10T00:18:20.422Z,75.29
2022-11-10T00:21:23.916Z,75.47
2022-11-10T00:24:27.734Z,75.67
2022-11-10T00:27:32.485Z,75.96
2022-11-10T00:30:37.814Z,76.30
2022-11-10T00:33:44.579Z,76.23
2022-11-10T00:36:48.977Z,75.72
2022-11-10T00:39:52.785Z,75.64
2022-11-10T00:42:55.667Z,76.17
2022-11-10T00:45:58.636Z,76.02
2022-11-10T00:49:04.249Z,76.18
2022-11-10T00:52:07.052Z,76.37
2022-11-10T00:55:09.925Z,76.51
2022-11-10T00:58:12.918Z,76.67
2022-11-10T01:01:17.285Z,76.16
2022-11-10T01:04:20.127Z,76.48
2022-11-10T01:07:22.918Z,76.27
2022-11-10T01:10:26.773Z,76.79
2022-11-10T01:13:29.805Z,76.98
2022-11-10T01:16:40.977Z,77.25
2022-11-10T01:19:43.813Z,77.04
2022-11-10T01:22:46.612Z,76.97
2022-11-10T01:25:49.400Z,77.06
2022-11-10T01:28:54.278Z,76.99
2022-11-10T01:32:00.851Z,77.16
2022-11-10T01:35:04.259Z,77.29
2022-11-10T01:38:07.054Z,77.04
2022-11-10T01:41:12.569Z,76.78
2022-11-10T01:44:21.275Z,76.97
2022-11-10T01:47:24.004Z,76.92
2022-11-10T01:50:34.097Z,76.96
2022-11-10T01:53:40.711Z,77.07
2022-11-10T01:56:48.648Z,76.54
2022-11-10T01:59:53.332Z,76.94
2022-11-10T02:03:21.805Z,76.93
2022-11-10T02:06:28.418Z,76.93
2022-11-10T02:09:40.650Z,76.70
2022-11-10T02:12:44.599Z,77.06
2022-11-10T02:15:47.471Z,77.00
2022-11-10T02:18:50.775Z,77.07
2022-11-10T02:21:53.755Z,77.16
2022-11-10T02:24:57.715Z,77.29
2022-11-10T02:28:00.704Z,77.50
2022-11-10T02:31:05.194Z,77.23
2022-11-10T02:34:08.287Z,77.26
2022-11-10T02:37:12.110Z,77.07
2022-11-10T02:40:16.302Z,77.60
2022-11-10T02:43:19.948Z,77.54
2022-11-10T02:47:26.715Z,77.26
2022-11-10T02:50:29.824Z,77.01
2022-11-10T02:53:32.684Z,76.71
2022-11-10T02:56:35.627Z,76.71
2022-11-10T02:59:38.480Z,76.75
2022-11-10T03:02:41.279Z,76.47
2022-11-10T03:05:44.398Z,76.44
2022-11-10T03:08:48.585Z,76.51
2022-11-10T03:11:51.413Z,76.29
2022-11-10T03:14:54.254Z,76.32
2022-11-10T03:18:02.472Z,76.58
2022-11-10T03:21:05.552Z,76.73
2022-11-10T03:24:08.474Z,76.52
2022-11-10T03:27:11.253Z,76.69
2022-11-10T03:30:14.286Z,77.02
2022-11-10T03:33:17.687Z,77.06
2022-11-10T03:36:20.530Z,77.32
2022-11-10T03:39:24.625Z,77.26
2022-11-10T03:42:27.467Z,76.97
2022-11-10T03:45:30.748Z,76.86
2022-11-10T03:48:33.517Z,76.85
2022-11-10T03:51:36.357Z,77.05
2022-11-10T03:54:39.215Z,77.00
2022-11-10T03:57:42.068Z,76.98
2022-11-10T04:00:44.883Z,77.22
2022-11-10T04:03:51.501Z,77.33
2022-11-10T04:07:13.060Z,77.16
2022-11-10T04:10:15.931Z,76.99
2022-11-10T04:13:37.577Z,76.95
2022-11-10T04:16:40.398Z,77.11
2022-11-10T04:19:44.275Z,77.18
2022-11-10T04:23:05.979Z,77.38
2022-11-10T04:26:30.250Z,77.42
2022-11-10T04:29:33.882Z,77.56
2022-11-10T04:32:36.700Z,77.45
2022-11-10T04:35:39.499Z,77.62
2022-11-10T04:38:42.491Z,77.97
2022-11-10T04:41:45.353Z,78.01
2022-11-10T04:44:48.577Z,78.01
2022-11-10T04:47:51.440Z,78.14
2022-11-10T04:50:55.398Z,78.41
2022-11-10T04:53:59.208Z,78.49
2022-11-10T04:57:02.119Z,78.70
2022-11-10T05:00:07.757Z,78.46
2022-11-10T05:03:11.929Z,78.58
2022-11-10T05:06:15.443Z,78.82
2022-11-10T05:09:18.284Z,78.72
2022-11-10T05:12:22.523Z,78.71
2022-11-10T05:15:26.091Z,78.84
2022-11-10T05:18:28.907Z,78.89
2022-11-10T05:21:31.770Z,78.82
2022-11-10T05:24:34.641Z,78.72
2022-11-10T05:27:37.434Z,78.76
2022-11-10T05:30:40.648Z,78.53
2022-11-10T05:33:44.283Z,78.42
2022-11-10T05:36:47.253Z,78.34
2022-11-10T05:39:50.158Z,78.23
2022-11-10T05:42:53.155Z,78.25
2022-11-10T05:45:56.085Z,78.32
2022-11-10T05:48:58.938Z,78.15
2022-11-10T05:52:02.073Z,78.30
2022-11-10T05:55:05.395Z,78.16
2022-11-10T05:58:09.004Z,78.03
2022-11-10T06:01:11.908Z,78.05
2022-11-10T06:04:51.225Z,78.18
2022-11-10T06:07:54.199Z,78.23
2022-11-10T06:10:57.110Z,77.97
2022-11-10T06:14:02.209Z,77.85
2022-11-10T06:17:05.141Z,78.00
2022-11-10T06:20:08.607Z,78.13
2022-11-10T06:23:13.036Z,77.97
2022-11-10T06:27:21.086Z,77.93
2022-11-10T06:30:25.887Z,77.80
2022-11-10T06:33:29.583Z,77.68
2022-11-10T06:36:32.688Z,77.63
2022-11-10T06:39:35.645Z,77.59
2022-11-10T06:42:39.310Z,77.61
2022-11-10T06:45:42.984Z,77.52
2022-11-10T06:48:45.869Z,77.32
2022-11-10T06:51:48.675Z,77.20
2022-11-10T06:54:51.585Z,77.12
2022-11-10T06:57:54.541Z,77.00
2022-11-10T07:01:01.159Z,76.98
2022-11-10T07:04:19.272Z,76.94
2022-11-10T07:07:23.036Z,76.74
2022-11-10T07:10:25.995Z,76.71
2022-11-10T07:13:28.906Z,76.64
2022-11-10T07:16:31.822Z,76.53
2022-11-10T07:19:34.787Z,76.36
2022-11-10T07:22:38.001Z,76.21
2022-11-10T07:25:40.944Z,76.13
2022-11-10T07:28:44.455Z,76.10
2022-11-10T07:31:47.461Z,76.02
2022-11-10T07:35:06.948Z,76.02
2022-11-10T07:38:12.444Z,75.86
2022-11-10T07:41:15.390Z,75.71
2022-11-10T07:45:11.679Z,75.76
2022-11-10T07:48:14.602Z,75.72
2022-11-10T07:51:17.402Z,75.66
2022-11-10T07:54:20.332Z,75.77
2022-11-10T07:57:23.156Z,75.59
2022-11-10T08:00:27.252Z,75.59
2022-11-10T08:03:30.294Z,75.48
2022-11-10T08:06:36.124Z,75.28
2022-11-10T08:09:39.368Z,75.36
2022-11-10T08:12:42.243Z,75.29
2022-11-10T08:15:45.190Z,75.12
2022-11-10T08:18:48.016Z,75.02
2022-11-10T08:21:50.930Z,75.02
2022-11-10T08:24:53.747Z,75.02
2022-11-10T08:28:06.077Z,75.05
2022-11-10T08:31:08.887Z,74.91
2022-11-10T08:34:18.031Z,74.89
2022-11-10T08:37:20.877Z,74.79
2022-11-10T08:40:28.020Z,74.56
2022-11-10T08:43:31.123Z,74.55
2022-11-10T08:46:33.998Z,74.58
2022-11-10T08:49:36.861Z,74.52
2022-11-10T08:52:39.912Z,74.51
2022-11-10T08:55:46.277Z,74.42
2022-11-10T08:58:53.496Z,74.42
2022-11-10T09:01:57.870Z,74.29
2022-11-10T09:05:00.814Z,74.29
2022-11-10T09:08:04.805Z,74.23
2022-11-10T09:11:07.654Z,74.14
2022-11-10T09:14:10.603Z,73.84
2022-11-10T09:17:13.572Z,73.82
2022-11-10T09:20:16.796Z,73.55
2022-11-10T09:23:19.911Z,73.46
2022-11-10T09:26:24.060Z,73.26
2022-11-10T09:29:26.912Z,73.32
2022-11-10T09:32:32.211Z,73.28
2022-11-10T09:35:35.103Z,73.01
2022-11-10T09:38:37.991Z,72.89
2022-11-10T09:41:44.167Z,72.93
2022-11-10T09:44:55.016Z,72.81
2022-11-10T09:48:03.379Z,72.60
2022-11-10T09:51:09.956Z,72.16
2022-11-10T09:54:31.073Z,72.19
2022-11-10T09:57:34.219Z,71.70
2022-11-10T10:00:37.549Z,71.68
2022-11-10T10:03:46.630Z,71.52
2022-11-10T10:07:11.154Z,71.46
2022-11-10T10:10:28.072Z,71.40
2022-11-10T10:13:51.051Z,71.08
2022-11-10T10:17:24.796Z,70.19
2022-11-10T10:20:32.617Z,70.28
2022-11-10T10:24:07.856Z,70.19
2022-11-10T10:27:26.075Z,69.42
2022-11-10T10:30:28.999Z,69.13
2022-11-10T10:33:31.940Z,69.11
2022-11-10T10:36:34.711Z,68.89
2022-11-10T10:39:55.451Z,69.14
2022-11-10T10:43:00.873Z,69.03
2022-11-10T10:46:08.886Z,69.06
2022-11-10T10:49:30.437Z,68.58
2022-11-10T10:52:33.713Z,68.31
2022-11-10T10:55:37.491Z,67.71
2022-11-10T10:58:56.609Z,68.42
2022-11-10T11:02:00.228Z,67.60
2022-11-10T11:05:15.555Z,66.77
2022-11-10T11:08:20.176Z,66.92
2022-11-10T11:12:27.127Z,66.16
2022-11-10T11:15:30.494Z,66.50
2022-11-10T11:18:35.587Z,66.02
2022-11-10T11:22:03.742Z,65.88
2022-11-10T11:25:41.537Z,65.78
2022-11-10T11:29:02.497Z,65.24
2022-11-10T11:32:21.487Z,65.42
2022-11-10T11:35:31.943Z,65.37
2022-11-10T11:38:52.378Z,65.45
2022-11-10T11:42:13.836Z,65.39
2022-11-10T11:45:32.865Z,65.95
2022-11-10T11:49:14.934Z,65.50
2022-11-10T11:52:34.917Z,65.19
2022-11-10T11:55:53.603Z,64.90
2022-11-10T11:59:08.236Z,64.90
2022-11-10T12:02:56.651Z,64.69
2022-11-10T12:06:36.627Z,64.80
2022-11-10T12:09:47.464Z,64.43
2022-11-10T12:13:15.174Z,64.19
2022-11-10T12:16:32.214Z,64.18
2022-11-10T12:19:51.948Z,64.61
2022-11-10T12:23:03.380Z,63.63
2022-11-10T12:26:12.202Z,62.37
2022-11-10T12:29:34.563Z,62.25
2022-11-10T12:32:42.135Z,62.68
2022-11-10T12:35:46.990Z,63.28
2022-11-10T12:39:00.086Z,63.62
2022-11-10T12:42:06.577Z,63.64
2022-11-10T12:45:32.451Z,64.23
2022-11-10T12:48:53.760Z,64.19
2022-11-10T12:52:28.781Z,64.44
2022-11-10T12:55:40.649Z,64.37
2022-11-10T12:58:43.509Z,64.16
2022-11-10T13:01:58.317Z,63.88
2022-11-10T13:05:28.996Z,62.92
2022-11-10T13:08:35.052Z,63.34
2022-11-10T13:11:40.632Z,62.64
2022-11-10T13:14:45.145Z,62.37
2022-11-10T13:17:48.290Z,62.25
2022-11-10T13:20:56.144Z,62.60
2022-11-10T13:24:29.733Z,62.48
2022-11-10T13:27:35.925Z,61.93
2022-11-10T13:30:48.896Z,62.67
2022-11-10T13:34:18.025Z,62.42
2022-11-10T13:37:29.867Z,62.66
2022-11-10T13:40:39.612Z,62.48
2022-11-10T13:43:59.166Z,62.96
2022-11-10T13:47:08.311Z,63.13
2022-11-10T13:50:11.114Z,63.45
2022-11-10T13:53:29.173Z,64.07
2022-11-10T13:56:48.043Z,64.06
2022-11-10T13:59:55.686Z,64.18
2022-11-10T14:03:03.823Z,64.34
2022-11-10T14:06:13.765Z,64.51
2022-11-10T14:09:29.264Z,64.67
2022-11-10T14:12:34.420Z,64.90
2022-11-10T14:15:44.322Z,64.94
2022-11-10T14:19:14.601Z,65.18
2022-11-10T14:22:34.753Z,65.37
2022-11-10T14:25:43.278Z,65.54
2022-11-10T14:28:47.341Z,65.74
2022-11-10T14:31:52.182Z,65.93
2022-11-10T14:34:56.453Z,66.03
2022-11-10T14:38:05.206Z,66.13
2022-11-10T14:41:16.496Z,66.17
2022-11-10T14:44:29.678Z,66.16
2022-11-10T14:47:35.155Z,66.25
2022-11-10T14:50:44.849Z,66.28
2022-11-10T14:53:53.463Z,66.37
2022-11-10T14:56:57.436Z,66.30
2022-11-10T15:00:00.272Z,66.39
2022-11-10T15:03:06.057Z,66.53
2022-11-10T15:06:14.102Z,66.64
2022-11-10T15:09:24.168Z,66.65
2022-11-10T15:12:27.819Z,66.52
2022-11-10T15:15:31.120Z,66.62
2022-11-10T15:18:34.427Z,66.57
2022-11-10T15:21:37.284Z,66.62
2022-11-10T15:24:50.693Z,66.73
2022-11-10T15:28:27.310Z,66.82
2022-11-10T15:31:37.295Z,66.94
2022-11-10T15:34:44.536Z,67.07
2022-11-10T15:38:01.666Z,66.90
2022-11-10T15:41:26.726Z,67.13
2022-11-10T15:44:30.381Z,67.09
2022-11-10T15:47:33.623Z,66.95
2022-11-10T15:50:37.022Z,66.75
2022-11-10T15:53:46.321Z,66.83
2022-11-10T15:56:49.193Z,66.90
2022-11-10T15:59:53.674Z,67.12
2022-11-10T16:02:56.534Z,67.10
2022-11-10T16:05:59.457Z,66.89
2022-11-10T16:09:04.675Z,66.83
2022-11-10T16:12:18.998Z,66.98
2022-11-10T16:15:22.042Z,66.61
2022-11-10T16:18:29.120Z,66.82
2022-11-10T16:21:33.851Z,66.81
2022-11-10T16:24:37.264Z,66.92
2022-11-10T16:27:40.523Z,66.77
2022-11-10T16:30:43.519Z,66.86
2022-11-10T16:33:47.783Z,67.10
2022-11-10T16:36:51.457Z,66.94
2022-11-10T16:39:54.316Z,66.86
2022-11-10T16:42:57.441Z,66.81
2022-11-10T16:46:12.813Z,66.94
2022-11-10T16:49:31.787Z,66.95
2022-11-10T16:52:34.821Z,66.89
2022-11-10T16:55:37.675Z,67.11
2022-11-10T16:58:40.607Z,67.17
2022-11-10T17:01:45.795Z,67.34
2022-11-10T17:04:48.833Z,67.52
2022-11-10T17:07:51.834Z,67.62
2022-11-10T17:10:57.050Z,67.96
2022-11-10T17:14:00.191Z,68.06
2022-11-10T17:17:03.153Z,68.11
2022-11-10T17:20:23.279Z,68.02
2022-11-10T17:23:27.924Z,67.93
2022-11-10T17:26:33.905Z,68.00
2022-11-10T17:29:37.238Z,68.08
2022-11-10T17:33:04.163Z,68.03
2022-11-10T17:36:35.205Z,67.92
2022-11-10T17:39:39.148Z,67.92
2022-11-10T17:42:42.154Z,68.15
2022-11-10T17:45:45.305Z,68.46
2022-11-10T17:48:48.309Z,68.40
2022-11-10T17:51:53.661Z,68.32
2022-11-10T17:54:56.534Z,68.35
2022-11-10T17:57:59.836Z,68.60
2022-11-10T18:01:02.838Z,68.71
2022-11-10T18:04:05.720Z,68.67
2022-11-10T18:07:08.667Z,68.57
2022-11-10T18:10:16.287Z,68.41
2022-11-10T18:13:19.180Z,68.54
2022-11-10T18:16:22.238Z,68.59
2022-11-10T18:19:25.245Z,68.70
2022-11-10T18:22:28.157Z,68.84
2022-11-10T18:25:31.100Z,68.80
2022-11-10T18:28:36.388Z,69.00
2022-11-10T18:31:39.281Z,69.11
2022-11-10T18:34:42.288Z,69.13
2022-11-10T18:37:45.318Z,69.00
2022-11-10T18:40:49.166Z,69.01
2022-11-10T18:43:52.697Z,69.18
2022-11-10T18:46:58.885Z,69.26
2022-11-10T18:50:03.373Z,69.47
2022-11-10T18:53:06.891Z,69.13
2022-11-10T18:56:16.051Z,69.22
2022-11-10T18:59:25.665Z,69.38
2022-11-10T19:02:29.270Z,69.30
2022-11-10T19:05:33.811Z,69.31
2022-11-10T19:08:52.053Z,69.29
2022-11-10T19:12:11.988Z,69.25
2022-11-10T19:15:18.478Z,69.09
2022-11-10T19:18:47.909Z,69.14
2022-11-10T19:21:55.211Z,69.08
2022-11-10T19:25:11.263Z,68.98
2022-11-10T19:28:18.645Z,69.27
2022-11-10T19:31:23.417Z,69.32
2022-11-10T19:34:29.757Z,69.56
2022-11-10T19:37:39.862Z,69.56
2022-11-10T19:40:44.867Z,69.78
2022-11-10T19:43:51.260Z,69.54
2022-11-10T19:46:54.314Z,69.50
2022-11-10T19:49:57.441Z,69.64
2022-11-10T19:53:00.381Z,69.74
2022-11-10T19:56:10.908Z,69.64
2022-11-10T19:59:19.599Z,69.64
2022-11-10T20:02:22.562Z,69.84
2022-11-10T20:05:25.559Z,70.15
2022-11-10T20:08:28.552Z,70.31
2022-11-10T20:11:33.721Z,70.36
2022-11-10T20:14:40.333Z,70.11
2022-11-10T20:17:49.540Z,70.12
2022-11-10T20:20:54.129Z,70.25
2022-11-10T20:23:57.383Z,70.45
2022-11-10T20:27:00.413Z,70.40
2022-11-10T20:30:04.212Z,70.52
2022-11-10T20:33:07.436Z,70.76
2022-11-10T20:36:19.901Z,70.94
2022-11-10T20:39:24.395Z,70.98
2022-11-10T20:42:27.287Z,71.08
2022-11-10T20:45:30.353Z,71.15
2022-11-10T20:48:34.755Z,71.38
2022-11-10T20:51:37.681Z,71.42
2022-11-10T20:54:42.880Z,71.55
2022-11-10T20:57:48.036Z,71.41
2022-11-10T21:00:55.722Z,72.07
2022-11-10T21:03:58.984Z,72.42
2022-11-10T21:07:02.012Z,72.70
2022-11-10T21:10:05.554Z,72.90
2022-11-10T21:13:10.688Z,73.40
2022-11-10T21:16:17.171Z,74.04
2022-11-10T21:19:25.019Z,74.23
2022-11-10T21:22:28.046Z,74.06
2022-11-10T21:25:31.002Z,73.77
2022-11-10T21:28:35.659Z,73.75
2022-11-10T21:31:41.033Z,73.75
2022-11-10T21:34:43.930Z,73.71
2022-11-10T21:37:47.023Z,73.72
2022-11-10T21:40:49.930Z,73.61
2022-11-10T21:43:52.990Z,73.73
2022-11-10T21:46:57.061Z,73.65
2022-11-10T21:50:00.056Z,73.49
2022-11-10T21:53:08.530Z,73.44
2022-11-10T21:56:12.978Z,73.08
2022-11-10T21:59:18.017Z,72.92
2022-11-10T22:02:21.032Z,72.99
2022-11-10T22:05:24.010Z,72.93
2022-11-10T22:08:26.907Z,73.25
2022-11-10T22:11:50.386Z,73.04
2022-11-10T22:15:11.873Z,73.46
2022-11-10T22:18:35.942Z,73.26
2022-11-10T22:21:38.850Z,73.22
2022-11-10T22:24:41.684Z,73.26
2022-11-10T22:27:44.518Z,73.23
2022-11-10T22:30:47.438Z,73.48
2022-11-10T22:33:50.627Z,73.32
2022-11-10T22:36:57.240Z,73.12
2022-11-10T22:40:18.823Z,73.14
2022-11-10T22:43:43.563Z,73.12
2022-11-10T22:46:52.353Z,72.95
2022-11-10T22:49:55.388Z,72.82
2022-11-10T22:53:01.109Z,72.68
2022-11-10T22:56:06.513Z,72.48
2022-11-10T22:59:37.840Z,72.50
2022-11-10T23:02:40.755Z,72.48
2022-11-10T23:05:58.105Z,72.18
2022-11-10T23:09:02.017Z,72.03
2022-11-10T23:12:05.189Z,72.04
2022-11-10T23:15:08.671Z,72.23
2022-11-10T23:18:11.529Z,72.34
2022-11-10T23:21:16.762Z,72.17
2022-11-10T23:24:22.910Z,72.32
2022-11-10T23:27:25.825Z,72.38
2022-11-10T23:30:28.663Z,72.42
2022-11-10T23:33:33.251Z,72.26
2022-11-10T23:36:36.413Z,72.65
2022-11-10T23:39:41.056Z,72.69
2022-11-10T23:42:45.034Z,72.67
2022-11-10T23:46:05.962Z,72.40
2022-11-10T23:49:09.566Z,72.75
2022-11-10T23:52:12.758Z,72.94
2022-11-10T23:55:15.641Z,72.95
2022-11-10T23:58:18.788Z,73.09
